sensor_id;sensor_type;location;lat;lon;timestamp;P1;durP1;ratioP1;P2;durP2;ratioP2
10910;SDS011;5508;49.150;11.030;2024-03-29T00:00:58;3.07;;;2.20;;
10910;SDS011;5508;49.150;11.030;2024-03-29T00:04:00;5.80;;;2.80;;
10910;SDS011;5508;49.150;11.030;2024-03-29T00:07:00;3.97;;;2.10;;
10910;SDS011;5508;49.150;11.030;2024-03-29T00:10:01;1.97;;;1.50;;
10910;SDS011;5508;49.150;11.030;2024-03-29T00:13:01;11.53;;;2.13;;
10910;SDS011;5508;49.150;11.030;2024-03-29T00:16:02;2.27;;;1.67;;
10910;SDS011;5508;49.150;11.030;2024-03-29T00:19:03;4.83;;;1.83;;
10910;SDS011;5508;49.150;11.030;2024-03-29T00:22:03;3.10;;;1.80;;
10910;SDS011;5508;49.150;11.030;2024-03-29T00:25:04;6.63;;;1.93;;
10910;SDS011;5508;49.150;11.030;2024-03-29T00:28:05;1.90;;;1.60;;
10910;SDS011;5508;49.150;11.030;2024-03-29T00:31:06;4.63;;;2.13;;
10910;SDS011;5508;49.150;11.030;2024-03-29T00:34:08;3.20;;;1.57;;
10910;SDS011;5508;49.150;11.030;2024-03-29T00:37:08;3.50;;;2.23;;
10910;SDS011;5508;49.150;11.030;2024-03-29T00:40:09;3.77;;;2.03;;
10910;SDS011;5508;49.150;11.030;2024-03-29T00:43:10;2.47;;;1.60;;
10910;SDS011;5508;49.150;11.030;2024-03-29T00:46:11;2.03;;;1.73;;
10910;SDS011;5508;49.150;11.030;2024-03-29T00:49:11;3.53;;;1.67;;
10910;SDS011;5508;49.150;11.030;2024-03-29T00:52:12;4.70;;;1.30;;
10910;SDS011;5508;49.150;11.030;2024-03-29T00:55:12;7.53;;;1.60;;
10910;SDS011;5508;49.150;11.030;2024-03-29T00:58:13;4.87;;;1.60;;
10910;SDS011;5508;49.150;11.030;2024-03-29T01:01:13;2.50;;;1.40;;
10910;SDS011;5508;49.150;11.030;2024-03-29T01:04:14;4.07;;;1.50;;
10910;SDS011;5508;49.150;11.030;2024-03-29T01:07:15;1.27;;;1.03;;
10910;SDS011;5508;49.150;11.030;2024-03-29T01:10:16;1.97;;;1.50;;
10910;SDS011;5508;49.150;11.030;2024-03-29T01:13:17;1.93;;;1.33;;
10910;SDS011;5508;49.150;11.030;2024-03-29T01:16:19;3.20;;;1.27;;
10910;SDS011;5508;49.150;11.030;2024-03-29T01:19:20;1.60;;;1.27;;
10910;SDS011;5508;49.150;11.030;2024-03-29T01:22:20;3.13;;;1.00;;
10910;SDS011;5508;49.150;11.030;2024-03-29T01:25:21;3.93;;;1.20;;
10910;SDS011;5508;49.150;11.030;2024-03-29T01:28:21;1.23;;;1.10;;
10910;SDS011;5508;49.150;11.030;2024-03-29T01:31:22;2.63;;;1.17;;
10910;SDS011;5508;49.150;11.030;2024-03-29T01:34:23;2.40;;;1.27;;
10910;SDS011;5508;49.150;11.030;2024-03-29T01:37:24;1.00;;;0.90;;
10910;SDS011;5508;49.150;11.030;2024-03-29T01:40:24;2.17;;;1.30;;
10910;SDS011;5508;49.150;11.030;2024-03-29T01:43:25;2.80;;;1.33;;
10910;SDS011;5508;49.150;11.030;2024-03-29T01:46:27;2.20;;;1.03;;
10910;SDS011;5508;49.150;11.030;2024-03-29T01:49:29;1.83;;;1.30;;
10910;SDS011;5508;49.150;11.030;2024-03-29T01:52:30;4.63;;;1.10;;
10910;SDS011;5508;49.150;11.030;2024-03-29T01:55:31;1.43;;;0.90;;
10910;SDS011;5508;49.150;11.030;2024-03-29T01:58:32;1.50;;;1.03;;
10910;SDS011;5508;49.150;11.030;2024-03-29T02:01:33;2.27;;;1.30;;
10910;SDS011;5508;49.150;11.030;2024-03-29T02:04:35;2.23;;;1.20;;
10910;SDS011;5508;49.150;11.030;2024-03-29T02:07:36;3.27;;;1.40;;
10910;SDS011;5508;49.150;11.030;2024-03-29T02:10:37;2.10;;;1.37;;
10910;SDS011;5508;49.150;11.030;2024-03-29T02:13:38;6.33;;;1.50;;
10910;SDS011;5508;49.150;11.030;2024-03-29T02:16:40;2.80;;;1.30;;
10910;SDS011;5508;49.150;11.030;2024-03-29T02:19:42;6.47;;;1.47;;
10910;SDS011;5508;49.150;11.030;2024-03-29T02:22:45;0.83;;;0.83;;
10910;SDS011;5508;49.150;11.030;2024-03-29T02:25:53;2.43;;;1.27;;
10910;SDS011;5508;49.150;11.030;2024-03-29T02:28:55;1.37;;;1.03;;
10910;SDS011;5508;49.150;11.030;2024-03-29T02:31:55;2.33;;;0.90;;
10910;SDS011;5508;49.150;11.030;2024-03-29T02:34:56;2.47;;;1.23;;
10910;SDS011;5508;49.150;11.030;2024-03-29T02:37:56;1.20;;;1.00;;
10910;SDS011;5508;49.150;11.030;2024-03-29T02:40:57;2.20;;;1.20;;
10910;SDS011;5508;49.150;11.030;2024-03-29T02:43:58;2.90;;;1.40;;
10910;SDS011;5508;49.150;11.030;2024-03-29T02:46:58;2.40;;;1.23;;
10910;SDS011;5508;49.150;11.030;2024-03-29T02:49:59;3.30;;;1.20;;
10910;SDS011;5508;49.150;11.030;2024-03-29T02:52:59;1.77;;;1.10;;
10910;SDS011;5508;49.150;11.030;2024-03-29T02:56:00;1.70;;;1.10;;
10910;SDS011;5508;49.150;11.030;2024-03-29T02:59:00;1.70;;;1.20;;
10910;SDS011;5508;49.150;11.030;2024-03-29T03:02:01;2.87;;;1.17;;
10910;SDS011;5508;49.150;11.030;2024-03-29T03:05:02;6.63;;;1.83;;
10910;SDS011;5508;49.150;11.030;2024-03-29T03:08:03;6.13;;;1.23;;
10910;SDS011;5508;49.150;11.030;2024-03-29T03:11:23;7.17;;;1.60;;
10910;SDS011;5508;49.150;11.030;2024-03-29T03:14:23;2.40;;;1.17;;
10910;SDS011;5508;49.150;11.030;2024-03-29T03:17:27;4.87;;;1.20;;
10910;SDS011;5508;49.150;11.030;2024-03-29T03:20:28;4.30;;;1.10;;
10910;SDS011;5508;49.150;11.030;2024-03-29T03:23:30;4.93;;;1.17;;
10910;SDS011;5508;49.150;11.030;2024-03-29T03:26:31;1.73;;;0.70;;
10910;SDS011;5508;49.150;11.030;2024-03-29T03:29:31;11.43;;;2.03;;
10910;SDS011;5508;49.150;11.030;2024-03-29T03:32:32;1.10;;;0.97;;
10910;SDS011;5508;49.150;11.030;2024-03-29T03:35:32;4.23;;;0.83;;
10910;SDS011;5508;49.150;11.030;2024-03-29T03:38:33;5.47;;;0.87;;
10910;SDS011;5508;49.150;11.030;2024-03-29T03:41:34;1.07;;;0.83;;
10910;SDS011;5508;49.150;11.030;2024-03-29T03:44:35;2.23;;;0.70;;
10910;SDS011;5508;49.150;11.030;2024-03-29T03:47:35;1.07;;;0.80;;
10910;SDS011;5508;49.150;11.030;2024-03-29T03:50:36;1.57;;;0.80;;
10910;SDS011;5508;49.150;11.030;2024-03-29T03:53:37;1.40;;;0.70;;
10910;SDS011;5508;49.150;11.030;2024-03-29T03:56:38;2.87;;;0.80;;
10910;SDS011;5508;49.150;11.030;2024-03-29T03:59:39;5.53;;;1.47;;
10910;SDS011;5508;49.150;11.030;2024-03-29T04:02:39;2.07;;;0.70;;
10910;SDS011;5508;49.150;11.030;2024-03-29T04:05:40;1.03;;;0.70;;
10910;SDS011;5508;49.150;11.030;2024-03-29T04:08:40;3.13;;;0.80;;
10910;SDS011;5508;49.150;11.030;2024-03-29T04:11:43;0.77;;;0.70;;
10910;SDS011;5508;49.150;11.030;2024-03-29T04:14:44;1.00;;;0.70;;
10910;SDS011;5508;49.150;11.030;2024-03-29T04:17:44;0.60;;;0.60;;
10910;SDS011;5508;49.150;11.030;2024-03-29T04:20:45;3.63;;;0.73;;
10910;SDS011;5508;49.150;11.030;2024-03-29T04:23:45;3.93;;;0.77;;
10910;SDS011;5508;49.150;11.030;2024-03-29T04:26:46;1.23;;;0.80;;
10910;SDS011;5508;49.150;11.030;2024-03-29T04:29:50;2.87;;;0.80;;
10910;SDS011;5508;49.150;11.030;2024-03-29T04:32:51;6.33;;;0.90;;
10910;SDS011;5508;49.150;11.030;2024-03-29T04:35:58;1.53;;;0.80;;
10910;SDS011;5508;49.150;11.030;2024-03-29T04:39:00;1.83;;;0.90;;
10910;SDS011;5508;49.150;11.030;2024-03-29T04:42:01;0.53;;;0.53;;
10910;SDS011;5508;49.150;11.030;2024-03-29T04:45:01;2.30;;;0.63;;
10910;SDS011;5508;49.150;11.030;2024-03-29T04:48:04;10.17;;;1.53;;
10910;SDS011;5508;49.150;11.030;2024-03-29T04:51:05;0.93;;;0.60;;
10910;SDS011;5508;49.150;11.030;2024-03-29T04:54:05;3.40;;;0.70;;
10910;SDS011;5508;49.150;11.030;2024-03-29T04:57:06;0.63;;;0.60;;
10910;SDS011;5508;49.150;11.030;2024-03-29T05:00:07;1.37;;;0.70;;
10910;SDS011;5508;49.150;11.030;2024-03-29T05:03:08;0.53;;;0.50;;
10910;SDS011;5508;49.150;11.030;2024-03-29T05:06:09;2.30;;;0.67;;
10910;SDS011;5508;49.150;11.030;2024-03-29T05:09:10;0.83;;;0.63;;
10910;SDS011;5508;49.150;11.030;2024-03-29T05:12:11;0.83;;;0.53;;
10910;SDS011;5508;49.150;11.030;2024-03-29T05:15:12;1.23;;;0.70;;
10910;SDS011;5508;49.150;11.030;2024-03-29T05:18:13;1.90;;;0.80;;
10910;SDS011;5508;49.150;11.030;2024-03-29T05:21:13;0.73;;;0.50;;
10910;SDS011;5508;49.150;11.030;2024-03-29T05:24:14;2.23;;;0.50;;
10910;SDS011;5508;49.150;11.030;2024-03-29T05:27:14;1.03;;;0.67;;
10910;SDS011;5508;49.150;11.030;2024-03-29T05:30:15;1.00;;;0.60;;
10910;SDS011;5508;49.150;11.030;2024-03-29T05:33:16;3.17;;;0.60;;
10910;SDS011;5508;49.150;11.030;2024-03-29T05:36:16;0.53;;;0.50;;
10910;SDS011;5508;49.150;11.030;2024-03-29T05:39:18;2.20;;;0.67;;
10910;SDS011;5508;49.150;11.030;2024-03-29T05:42:19;0.40;;;0.40;;
10910;SDS011;5508;49.150;11.030;2024-03-29T05:45:24;0.50;;;0.50;;
10910;SDS011;5508;49.150;11.030;2024-03-29T05:48:26;0.60;;;0.40;;
10910;SDS011;5508;49.150;11.030;2024-03-29T05:51:27;2.07;;;0.57;;
10910;SDS011;5508;49.150;11.030;2024-03-29T05:54:27;0.60;;;0.50;;
10910;SDS011;5508;49.150;11.030;2024-03-29T05:57:28;0.70;;;0.67;;
10910;SDS011;5508;49.150;11.030;2024-03-29T06:00:30;3.37;;;0.70;;
10910;SDS011;5508;49.150;11.030;2024-03-29T06:03:33;2.40;;;0.93;;
10910;SDS011;5508;49.150;11.030;2024-03-29T06:06:34;0.70;;;0.70;;
10910;SDS011;5508;49.150;11.030;2024-03-29T06:09:34;5.57;;;0.80;;
10910;SDS011;5508;49.150;11.030;2024-03-29T06:12:35;6.37;;;1.00;;
10910;SDS011;5508;49.150;11.030;2024-03-29T06:15:38;0.57;;;0.50;;
10910;SDS011;5508;49.150;11.030;2024-03-29T06:18:57;0.60;;;0.40;;
10910;SDS011;5508;49.150;11.030;2024-03-29T06:21:58;2.23;;;0.90;;
10910;SDS011;5508;49.150;11.030;2024-03-29T06:24:58;2.37;;;0.90;;
10910;SDS011;5508;49.150;11.030;2024-03-29T06:28:04;2.60;;;0.80;;
10910;SDS011;5508;49.150;11.030;2024-03-29T06:31:05;0.93;;;0.70;;
10910;SDS011;5508;49.150;11.030;2024-03-29T06:34:05;2.60;;;0.60;;
10910;SDS011;5508;49.150;11.030;2024-03-29T06:37:07;1.10;;;0.67;;
10910;SDS011;5508;49.150;11.030;2024-03-29T06:40:08;0.50;;;0.50;;
10910;SDS011;5508;49.150;11.030;2024-03-29T06:43:09;2.87;;;0.60;;
10910;SDS011;5508;49.150;11.030;2024-03-29T06:46:11;1.67;;;1.27;;
10910;SDS011;5508;49.150;11.030;2024-03-29T06:49:12;2.07;;;1.07;;
10910;SDS011;5508;49.150;11.030;2024-03-29T06:52:13;0.57;;;0.57;;
10910;SDS011;5508;49.150;11.030;2024-03-29T06:55:13;3.43;;;0.90;;
10910;SDS011;5508;49.150;11.030;2024-03-29T06:58:14;11.03;;;3.50;;
10910;SDS011;5508;49.150;11.030;2024-03-29T07:01:15;2.30;;;1.23;;
10910;SDS011;5508;49.150;11.030;2024-03-29T07:04:15;2.30;;;1.20;;
10910;SDS011;5508;49.150;11.030;2024-03-29T07:07:16;1.03;;;0.90;;
10910;SDS011;5508;49.150;11.030;2024-03-29T07:10:16;1.67;;;1.00;;
10910;SDS011;5508;49.150;11.030;2024-03-29T07:13:17;3.27;;;1.00;;
10910;SDS011;5508;49.150;11.030;2024-03-29T07:16:17;6.47;;;2.67;;
10910;SDS011;5508;49.150;11.030;2024-03-29T07:19:18;4.90;;;1.10;;
10910;SDS011;5508;49.150;11.030;2024-03-29T07:22:19;3.60;;;0.67;;
10910;SDS011;5508;49.150;11.030;2024-03-29T07:25:20;1.47;;;0.50;;
10910;SDS011;5508;49.150;11.030;2024-03-29T07:28:20;6.03;;;1.00;;
10910;SDS011;5508;49.150;11.030;2024-03-29T07:31:21;0.50;;;0.50;;
10910;SDS011;5508;49.150;11.030;2024-03-29T07:34:21;2.57;;;0.80;;
10910;SDS011;5508;49.150;11.030;2024-03-29T07:37:22;1.80;;;0.70;;
10910;SDS011;5508;49.150;11.030;2024-03-29T07:40:23;1.20;;;0.80;;
10910;SDS011;5508;49.150;11.030;2024-03-29T07:43:23;2.00;;;0.50;;
10910;SDS011;5508;49.150;11.030;2024-03-29T07:46:24;2.00;;;0.50;;
10910;SDS011;5508;49.150;11.030;2024-03-29T07:49:27;0.77;;;0.60;;
10910;SDS011;5508;49.150;11.030;2024-03-29T07:52:28;1.03;;;0.50;;
10910;SDS011;5508;49.150;11.030;2024-03-29T07:55:30;1.10;;;0.53;;
10910;SDS011;5508;49.150;11.030;2024-03-29T07:58:31;2.70;;;0.70;;
10910;SDS011;5508;49.150;11.030;2024-03-29T08:01:31;5.27;;;1.00;;
10910;SDS011;5508;49.150;11.030;2024-03-29T08:04:32;3.37;;;1.20;;
10910;SDS011;5508;49.150;11.030;2024-03-29T08:07:32;6.13;;;1.30;;
10910;SDS011;5508;49.150;11.030;2024-03-29T08:10:33;1.07;;;0.93;;
10910;SDS011;5508;49.150;11.030;2024-03-29T08:13:34;3.70;;;0.90;;
10910;SDS011;5508;49.150;11.030;2024-03-29T08:16:34;1.53;;;0.60;;
10910;SDS011;5508;49.150;11.030;2024-03-29T08:19:35;1.10;;;1.00;;
10910;SDS011;5508;49.150;11.030;2024-03-29T08:22:36;0.67;;;0.50;;
10910;SDS011;5508;49.150;11.030;2024-03-29T08:25:37;5.03;;;0.80;;
10910;SDS011;5508;49.150;11.030;2024-03-29T08:28:37;0.47;;;0.40;;
10910;SDS011;5508;49.150;11.030;2024-03-29T08:31:38;3.63;;;0.63;;
10910;SDS011;5508;49.150;11.030;2024-03-29T08:34:39;5.30;;;0.93;;
10910;SDS011;5508;49.150;11.030;2024-03-29T08:37:39;0.50;;;0.50;;
10910;SDS011;5508;49.150;11.030;2024-03-29T08:40:40;1.07;;;1.00;;
10910;SDS011;5508;49.150;11.030;2024-03-29T08:43:43;1.17;;;0.90;;
10910;SDS011;5508;49.150;11.030;2024-03-29T08:46:44;2.73;;;0.80;;
10910;SDS011;5508;49.150;11.030;2024-03-29T08:49:44;0.77;;;0.40;;
10910;SDS011;5508;49.150;11.030;2024-03-29T08:52:45;2.00;;;0.60;;
10910;SDS011;5508;49.150;11.030;2024-03-29T08:55:46;0.93;;;0.80;;
10910;SDS011;5508;49.150;11.030;2024-03-29T08:58:48;7.50;;;1.20;;
10910;SDS011;5508;49.150;11.030;2024-03-29T09:01:48;4.50;;;1.00;;
10910;SDS011;5508;49.150;11.030;2024-03-29T09:04:49;12.53;;;8.60;;
10910;SDS011;5508;49.150;11.030;2024-03-29T09:07:50;6.70;;;2.50;;
10910;SDS011;5508;49.150;11.030;2024-03-29T09:10:50;2.90;;;1.90;;
10910;SDS011;5508;49.150;11.030;2024-03-29T09:13:51;2.67;;;0.50;;
10910;SDS011;5508;49.150;11.030;2024-03-29T09:16:53;4.60;;;2.60;;
10910;SDS011;5508;49.150;11.030;2024-03-29T09:19:54;2.40;;;1.00;;
10910;SDS011;5508;49.150;11.030;2024-03-29T09:22:55;9.83;;;1.33;;
10910;SDS011;5508;49.150;11.030;2024-03-29T09:25:56;1.07;;;0.83;;
10910;SDS011;5508;49.150;11.030;2024-03-29T09:28:57;0.80;;;0.80;;
10910;SDS011;5508;49.150;11.030;2024-03-29T09:31:57;1.57;;;0.97;;
10910;SDS011;5508;49.150;11.030;2024-03-29T09:34:58;2.47;;;1.30;;
10910;SDS011;5508;49.150;11.030;2024-03-29T09:38:00;2.93;;;1.10;;
10910;SDS011;5508;49.150;11.030;2024-03-29T09:41:10;2.00;;;1.77;;
10910;SDS011;5508;49.150;11.030;2024-03-29T09:44:14;3.53;;;1.50;;
10910;SDS011;5508;49.150;11.030;2024-03-29T09:47:15;2.60;;;1.30;;
10910;SDS011;5508;49.150;11.030;2024-03-29T09:50:17;1.87;;;1.27;;
10910;SDS011;5508;49.150;11.030;2024-03-29T09:53:18;1.30;;;1.20;;
10910;SDS011;5508;49.150;11.030;2024-03-29T09:56:21;2.40;;;2.20;;
10910;SDS011;5508;49.150;11.030;2024-03-29T09:59:22;2.47;;;2.17;;
10910;SDS011;5508;49.150;11.030;2024-03-29T10:02:26;1.50;;;1.23;;
10910;SDS011;5508;49.150;11.030;2024-03-29T10:05:30;3.50;;;1.33;;
10910;SDS011;5508;49.150;11.030;2024-03-29T10:08:31;1.67;;;1.20;;
10910;SDS011;5508;49.150;11.030;2024-03-29T10:11:32;2.60;;;1.40;;
10910;SDS011;5508;49.150;11.030;2024-03-29T10:14:42;1.77;;;1.00;;
10910;SDS011;5508;49.150;11.030;2024-03-29T10:17:48;2.03;;;1.00;;
10910;SDS011;5508;49.150;11.030;2024-03-29T10:24:13;1.70;;;1.07;;
10910;SDS011;5508;49.150;11.030;2024-03-29T10:27:14;7.17;;;2.80;;
10910;SDS011;5508;49.150;11.030;2024-03-29T10:30:15;6.00;;;1.97;;
10910;SDS011;5508;49.150;11.030;2024-03-29T10:33:19;12.97;;;5.77;;
10910;SDS011;5508;49.150;11.030;2024-03-29T10:36:20;13.17;;;10.53;;
10910;SDS011;5508;49.150;11.030;2024-03-29T10:39:20;14.80;;;2.40;;
10910;SDS011;5508;49.150;11.030;2024-03-29T10:42:21;17.47;;;3.83;;
10910;SDS011;5508;49.150;11.030;2024-03-29T10:45:23;3.30;;;2.57;;
10910;SDS011;5508;49.150;11.030;2024-03-29T10:48:26;2.77;;;2.20;;
10910;SDS011;5508;49.150;11.030;2024-03-29T10:51:28;8.07;;;2.13;;
10910;SDS011;5508;49.150;11.030;2024-03-29T10:54:28;2.67;;;1.90;;
10910;SDS011;5508;49.150;11.030;2024-03-29T10:57:30;2.40;;;1.70;;
10910;SDS011;5508;49.150;11.030;2024-03-29T11:00:39;2.53;;;1.60;;
10910;SDS011;5508;49.150;11.030;2024-03-29T11:03:50;6.93;;;2.20;;
10910;SDS011;5508;49.150;11.030;2024-03-29T11:06:54;2.17;;;1.10;;
10910;SDS011;5508;49.150;11.030;2024-03-29T11:09:59;8.30;;;2.60;;
10910;SDS011;5508;49.150;11.030;2024-03-29T11:13:06;2.13;;;0.97;;
10910;SDS011;5508;49.150;11.030;2024-03-29T11:16:16;0.90;;;0.70;;
10910;SDS011;5508;49.150;11.030;2024-03-29T11:19:18;3.87;;;1.03;;
10910;SDS011;5508;49.150;11.030;2024-03-29T11:22:20;1.53;;;1.00;;
10910;SDS011;5508;49.150;11.030;2024-03-29T11:25:20;1.10;;;1.00;;
10910;SDS011;5508;49.150;11.030;2024-03-29T11:28:23;3.13;;;1.50;;
10910;SDS011;5508;49.150;11.030;2024-03-29T11:31:26;2.03;;;0.90;;
10910;SDS011;5508;49.150;11.030;2024-03-29T11:34:30;1.07;;;0.80;;
10910;SDS011;5508;49.150;11.030;2024-03-29T11:37:32;2.10;;;0.90;;
10910;SDS011;5508;49.150;11.030;2024-03-29T11:40:32;1.13;;;1.00;;
10910;SDS011;5508;49.150;11.030;2024-03-29T11:43:33;1.13;;;0.80;;
10910;SDS011;5508;49.150;11.030;2024-03-29T11:46:35;2.20;;;1.20;;
10910;SDS011;5508;49.150;11.030;2024-03-29T11:49:37;2.80;;;1.37;;
10910;SDS011;5508;49.150;11.030;2024-03-29T11:52:38;1.50;;;1.10;;
10910;SDS011;5508;49.150;11.030;2024-03-29T11:55:39;2.87;;;1.20;;
10910;SDS011;5508;49.150;11.030;2024-03-29T11:58:40;3.80;;;0.73;;
10910;SDS011;5508;49.150;11.030;2024-03-29T12:01:41;3.00;;;1.00;;
10910;SDS011;5508;49.150;11.030;2024-03-29T12:04:41;1.07;;;0.90;;
10910;SDS011;5508;49.150;11.030;2024-03-29T12:07:42;1.73;;;1.20;;
10910;SDS011;5508;49.150;11.030;2024-03-29T12:10:45;1.80;;;1.40;;
10910;SDS011;5508;49.150;11.030;2024-03-29T12:13:46;1.07;;;0.97;;
10910;SDS011;5508;49.150;11.030;2024-03-29T12:16:47;1.17;;;1.07;;
10910;SDS011;5508;49.150;11.030;2024-03-29T12:19:47;2.33;;;1.90;;
10910;SDS011;5508;49.150;11.030;2024-03-29T12:22:49;2.73;;;2.20;;
10910;SDS011;5508;49.150;11.030;2024-03-29T12:25:50;4.20;;;2.30;;
10910;SDS011;5508;49.150;11.030;2024-03-29T12:28:53;1.53;;;1.40;;
10910;SDS011;5508;49.150;11.030;2024-03-29T12:31:56;2.30;;;1.70;;
10910;SDS011;5508;49.150;11.030;2024-03-29T12:35:13;3.00;;;1.67;;
10910;SDS011;5508;49.150;11.030;2024-03-29T12:38:16;1.50;;;1.20;;
10910;SDS011;5508;49.150;11.030;2024-03-29T12:41:17;6.23;;;1.20;;
10910;SDS011;5508;49.150;11.030;2024-03-29T12:44:18;0.80;;;0.70;;
10910;SDS011;5508;49.150;11.030;2024-03-29T12:47:19;3.37;;;1.20;;
10910;SDS011;5508;49.150;11.030;2024-03-29T12:50:29;2.47;;;0.90;;
10910;SDS011;5508;49.150;11.030;2024-03-29T12:53:31;1.33;;;0.90;;
10910;SDS011;5508;49.150;11.030;2024-03-29T12:56:33;7.63;;;1.60;;
10910;SDS011;5508;49.150;11.030;2024-03-29T12:59:36;1.07;;;0.80;;
10910;SDS011;5508;49.150;11.030;2024-03-29T13:02:37;1.23;;;1.00;;
10910;SDS011;5508;49.150;11.030;2024-03-29T13:05:38;4.60;;;1.73;;
10910;SDS011;5508;49.150;11.030;2024-03-29T13:08:43;3.17;;;2.30;;
10910;SDS011;5508;49.150;11.030;2024-03-29T13:11:43;8.90;;;1.10;;
10910;SDS011;5508;49.150;11.030;2024-03-29T13:14:44;1.70;;;0.90;;
10910;SDS011;5508;49.150;11.030;2024-03-29T13:17:45;5.83;;;1.67;;
10910;SDS011;5508;49.150;11.030;2024-03-29T13:20:47;1.97;;;1.30;;
10910;SDS011;5508;49.150;11.030;2024-03-29T13:23:48;2.77;;;1.80;;
10910;SDS011;5508;49.150;11.030;2024-03-29T13:26:48;2.03;;;1.30;;
10910;SDS011;5508;49.150;11.030;2024-03-29T13:29:49;3.20;;;1.30;;
10910;SDS011;5508;49.150;11.030;2024-03-29T13:32:50;3.37;;;2.07;;
10910;SDS011;5508;49.150;11.030;2024-03-29T13:35:52;2.47;;;1.20;;
10910;SDS011;5508;49.150;11.030;2024-03-29T13:38:53;7.67;;;2.90;;
10910;SDS011;5508;49.150;11.030;2024-03-29T13:41:53;3.03;;;2.27;;
10910;SDS011;5508;49.150;11.030;2024-03-29T13:44:54;3.27;;;1.40;;
10910;SDS011;5508;49.150;11.030;2024-03-29T13:47:55;1.20;;;0.70;;
10910;SDS011;5508;49.150;11.030;2024-03-29T13:50:55;1.70;;;1.07;;
10910;SDS011;5508;49.150;11.030;2024-03-29T13:53:56;1.23;;;0.97;;
10910;SDS011;5508;49.150;11.030;2024-03-29T13:56:56;1.43;;;0.90;;
10910;SDS011;5508;49.150;11.030;2024-03-29T13:59:57;1.40;;;1.00;;
10910;SDS011;5508;49.150;11.030;2024-03-29T14:02:59;1.23;;;0.53;;
10910;SDS011;5508;49.150;11.030;2024-03-29T14:05:59;3.37;;;1.10;;
10910;SDS011;5508;49.150;11.030;2024-03-29T14:09:00;1.10;;;0.90;;
10910;SDS011;5508;49.150;11.030;2024-03-29T14:12:02;2.33;;;1.70;;
10910;SDS011;5508;49.150;11.030;2024-03-29T14:15:03;4.53;;;1.60;;
10910;SDS011;5508;49.150;11.030;2024-03-29T14:18:06;2.37;;;1.03;;
10910;SDS011;5508;49.150;11.030;2024-03-29T14:21:06;2.33;;;1.40;;
10910;SDS011;5508;49.150;11.030;2024-03-29T14:24:07;1.47;;;0.90;;
10910;SDS011;5508;49.150;11.030;2024-03-29T14:27:08;0.60;;;0.60;;
10910;SDS011;5508;49.150;11.030;2024-03-29T14:30:09;1.20;;;0.77;;
10910;SDS011;5508;49.150;11.030;2024-03-29T14:33:10;0.70;;;0.60;;
10910;SDS011;5508;49.150;11.030;2024-03-29T14:36:10;2.77;;;0.80;;
10910;SDS011;5508;49.150;11.030;2024-03-29T14:39:11;0.70;;;0.70;;
10910;SDS011;5508;49.150;11.030;2024-03-29T14:42:13;6.60;;;1.30;;
10910;SDS011;5508;49.150;11.030;2024-03-29T14:45:16;1.00;;;0.80;;
10910;SDS011;5508;49.150;11.030;2024-03-29T14:48:16;0.77;;;0.40;;
10910;SDS011;5508;49.150;11.030;2024-03-29T14:51:18;1.13;;;0.83;;
10910;SDS011;5508;49.150;11.030;2024-03-29T14:54:19;2.57;;;1.17;;
10910;SDS011;5508;49.150;11.030;2024-03-29T14:57:19;1.58;;;1.23;;
10910;SDS011;5508;49.150;11.030;2024-03-29T15:00:22;2.57;;;1.17;;
10910;SDS011;5508;49.150;11.030;2024-03-29T15:03:24;0.87;;;0.43;;
10910;SDS011;5508;49.150;11.030;2024-03-29T15:06:25;1.80;;;0.80;;
10910;SDS011;5508;49.150;11.030;2024-03-29T15:09:25;1.73;;;0.97;;
10910;SDS011;5508;49.150;11.030;2024-03-29T15:12:26;11.60;;;1.53;;
10910;SDS011;5508;49.150;11.030;2024-03-29T15:15:27;0.40;;;0.40;;
10910;SDS011;5508;49.150;11.030;2024-03-29T15:18:27;6.20;;;0.90;;
10910;SDS011;5508;49.150;11.030;2024-03-29T15:21:28;1.43;;;0.70;;
10910;SDS011;5508;49.150;11.030;2024-03-29T15:24:28;0.67;;;0.60;;
10910;SDS011;5508;49.150;11.030;2024-03-29T15:27:29;1.70;;;1.20;;
10910;SDS011;5508;49.150;11.030;2024-03-29T15:30:50;2.97;;;0.90;;
10910;SDS011;5508;49.150;11.030;2024-03-29T15:33:53;1.33;;;0.93;;
10910;SDS011;5508;49.150;11.030;2024-03-29T15:36:53;1.20;;;0.80;;
10910;SDS011;5508;49.150;11.030;2024-03-29T15:39:54;3.00;;;1.30;;
10910;SDS011;5508;49.150;11.030;2024-03-29T15:42:55;0.83;;;0.70;;
10910;SDS011;5508;49.150;11.030;2024-03-29T15:45:56;1.20;;;0.90;;
10910;SDS011;5508;49.150;11.030;2024-03-29T15:48:57;3.07;;;1.27;;
10910;SDS011;5508;49.150;11.030;2024-03-29T15:51:59;2.63;;;1.70;;
10910;SDS011;5508;49.150;11.030;2024-03-29T15:55:00;4.63;;;2.43;;
10910;SDS011;5508;49.150;11.030;2024-03-29T15:58:00;1.37;;;1.07;;
10910;SDS011;5508;49.150;11.030;2024-03-29T16:01:02;4.23;;;2.23;;
10910;SDS011;5508;49.150;11.030;2024-03-29T16:04:08;2.17;;;1.50;;
10910;SDS011;5508;49.150;11.030;2024-03-29T16:07:09;1.47;;;0.90;;
10910;SDS011;5508;49.150;11.030;2024-03-29T16:10:10;1.90;;;0.90;;
10910;SDS011;5508;49.150;11.030;2024-03-29T16:13:11;4.03;;;1.17;;
10910;SDS011;5508;49.150;11.030;2024-03-29T16:16:11;1.73;;;1.10;;
10910;SDS011;5508;49.150;11.030;2024-03-29T16:19:12;1.77;;;1.37;;
10910;SDS011;5508;49.150;11.030;2024-03-29T16:22:12;2.03;;;1.47;;
10910;SDS011;5508;49.150;11.030;2024-03-29T16:25:15;1.67;;;1.33;;
10910;SDS011;5508;49.150;11.030;2024-03-29T16:28:15;2.03;;;0.80;;
10910;SDS011;5508;49.150;11.030;2024-03-29T16:31:18;2.87;;;1.00;;
10910;SDS011;5508;49.150;11.030;2024-03-29T16:34:19;2.63;;;2.30;;
10910;SDS011;5508;49.150;11.030;2024-03-29T16:37:19;3.10;;;1.60;;
10910;SDS011;5508;49.150;11.030;2024-03-29T16:40:20;1.50;;;1.00;;
10910;SDS011;5508;49.150;11.030;2024-03-29T16:43:21;4.20;;;1.83;;
10910;SDS011;5508;49.150;11.030;2024-03-29T16:46:21;2.67;;;1.80;;
10910;SDS011;5508;49.150;11.030;2024-03-29T16:49:22;2.20;;;1.73;;
10910;SDS011;5508;49.150;11.030;2024-03-29T16:52:24;5.03;;;2.10;;
10910;SDS011;5508;49.150;11.030;2024-03-29T16:55:27;4.33;;;2.53;;
10910;SDS011;5508;49.150;11.030;2024-03-29T16:58:30;4.47;;;4.03;;
10910;SDS011;5508;49.150;11.030;2024-03-29T17:01:31;7.60;;;2.60;;
10910;SDS011;5508;49.150;11.030;2024-03-29T17:04:31;3.30;;;2.93;;
10910;SDS011;5508;49.150;11.030;2024-03-29T17:07:33;2.97;;;2.77;;
10910;SDS011;5508;49.150;11.030;2024-03-29T17:10:34;4.63;;;3.13;;
10910;SDS011;5508;49.150;11.030;2024-03-29T17:13:35;3.97;;;3.50;;
10910;SDS011;5508;49.150;11.030;2024-03-29T17:16:35;4.73;;;3.60;;
10910;SDS011;5508;49.150;11.030;2024-03-29T17:19:37;6.53;;;3.63;;
10910;SDS011;5508;49.150;11.030;2024-03-29T17:22:38;5.13;;;2.60;;
10910;SDS011;5508;49.150;11.030;2024-03-29T17:25:38;1.23;;;1.10;;
10910;SDS011;5508;49.150;11.030;2024-03-29T17:28:39;3.83;;;1.50;;
10910;SDS011;5508;49.150;11.030;2024-03-29T17:31:43;1.20;;;1.10;;
10910;SDS011;5508;49.150;11.030;2024-03-29T17:34:44;4.43;;;3.53;;
10910;SDS011;5508;49.150;11.030;2024-03-29T17:37:45;4.30;;;2.00;;
10910;SDS011;5508;49.150;11.030;2024-03-29T17:40:45;4.23;;;1.83;;
10910;SDS011;5508;49.150;11.030;2024-03-29T17:43:46;2.40;;;1.87;;
10910;SDS011;5508;49.150;11.030;2024-03-29T17:46:46;3.73;;;2.93;;
10910;SDS011;5508;49.150;11.030;2024-03-29T17:49:48;28.10;;;11.73;;
10910;SDS011;5508;49.150;11.030;2024-03-29T17:52:49;14.03;;;7.83;;
10910;SDS011;5508;49.150;11.030;2024-03-29T17:55:49;7.13;;;5.10;;
10910;SDS011;5508;49.150;11.030;2024-03-29T17:58:50;8.03;;;6.17;;
10910;SDS011;5508;49.150;11.030;2024-03-29T18:01:50;8.03;;;6.30;;
10910;SDS011;5508;49.150;11.030;2024-03-29T18:04:51;11.67;;;6.73;;
10910;SDS011;5508;49.150;11.030;2024-03-29T18:07:51;9.77;;;6.00;;
10910;SDS011;5508;49.150;11.030;2024-03-29T18:10:52;8.40;;;6.33;;
10910;SDS011;5508;49.150;11.030;2024-03-29T18:13:53;8.27;;;6.77;;
10910;SDS011;5508;49.150;11.030;2024-03-29T18:16:55;12.43;;;7.57;;